createdAt,value
2022-08-28T00:02:36.235Z,19.65
2022-08-28T00:08:56.142Z,19.65
2022-08-28T00:15:19.213Z,19.65
2022-08-28T00:21:39.145Z,19.64
2022-08-28T00:28:05.361Z,19.62
2022-08-28T00:34:29.689Z,19.61
2022-08-28T00:40:45.176Z,19.62
2022-08-28T00:47:05.172Z,19.59
2022-08-28T00:53:29.048Z,19.54
2022-08-28T00:59:48.143Z,19.49
2022-08-28T01:06:11.161Z,19.41
2022-08-28T01:12:31.133Z,19.41
2022-08-28T01:18:54.190Z,19.41
2022-08-28T01:25:14.137Z,19.4
2022-08-28T01:31:37.162Z,19.39
2022-08-28T01:37:57.153Z,19.38
2022-08-28T01:44:20.143Z,19.36
2022-08-28T01:50:40.165Z,19.35
2022-08-28T01:57:03.141Z,19.31
2022-08-28T02:03:23.149Z,19.25
2022-08-28T02:09:46.178Z,19.21
2022-08-28T02:16:06.222Z,19.18
2022-08-28T02:22:29.166Z,19.13
2022-08-28T02:28:49.153Z,19.1
2022-08-28T02:35:12.294Z,19.09
2022-08-28T02:41:32.154Z,19.05
2022-08-28T02:47:55.144Z,19
2022-08-28T02:54:15.181Z,18.93
2022-08-28T03:00:38.156Z,18.89
2022-08-28T03:06:58.150Z,18.86
2022-08-28T03:13:23.003Z,18.87
2022-08-28T03:19:41.138Z,18.84
2022-08-28T03:26:04.145Z,18.79
2022-08-28T03:32:24.165Z,18.74
2022-08-28T03:38:47.140Z,18.71
2022-08-28T03:45:07.184Z,18.67
2022-08-28T03:51:30.136Z,18.64
2022-08-28T03:57:50.137Z,18.6
2022-08-28T04:21:31.076Z,18.44
2022-08-28T04:27:54.133Z,18.4
2022-08-28T04:34:14.140Z,18.34
2022-08-28T04:40:37.235Z,18.28
2022-08-28T04:46:57.139Z,18.23
2022-08-28T04:53:20.456Z,18.19
2022-08-28T04:59:40.147Z,18.17
2022-08-28T05:06:03.164Z,18.18
2022-08-28T05:12:23.175Z,18.19
2022-08-28T05:18:46.143Z,18.16
2022-08-28T05:25:06.169Z,18.13
2022-08-28T05:31:29.201Z,18.12
2022-08-28T05:37:49.142Z,18.16
2022-08-28T05:44:12.201Z,18.18
2022-08-28T05:50:32.152Z,18.14
2022-08-28T05:56:55.190Z,18.1
2022-08-28T06:03:15.144Z,18.1
2022-08-28T06:09:38.146Z,18.17
2022-08-28T06:15:58.188Z,18.3
2022-08-28T06:22:21.141Z,18.37
2022-08-28T06:28:41.175Z,18.4
2022-08-28T06:35:04.152Z,18.43
2022-08-28T06:41:24.141Z,18.46
2022-08-28T06:47:47.177Z,18.55
2022-08-28T06:54:07.150Z,18.57
2022-08-28T07:00:30.156Z,18.63
2022-08-28T07:06:54.010Z,18.85
2022-08-28T07:13:13.150Z,19
2022-08-28T07:19:33.175Z,19.21
2022-08-28T07:25:56.154Z,19.35
2022-08-28T07:32:16.156Z,19.37
2022-08-28T07:38:39.159Z,19.44
2022-08-28T07:44:59.332Z,19.5
2022-08-28T07:51:22.179Z,19.55
2022-08-28T07:57:42.145Z,19.62
2022-08-28T08:04:05.219Z,19.56
2022-08-28T08:10:25.192Z,19.65
2022-08-28T08:16:49.170Z,19.88
2022-08-28T08:23:10.448Z,20.14
2022-08-28T08:29:33.215Z,20.19
2022-08-28T08:35:53.240Z,20.34
2022-08-28T08:42:16.147Z,20.52
2022-08-28T08:48:36.170Z,20.54
2022-08-28T08:54:59.482Z,20.54
2022-08-28T09:01:19.189Z,20.76
2022-08-28T09:07:42.187Z,20.92
2022-08-28T09:14:02.147Z,20.91
2022-08-28T09:20:25.897Z,21.04
2022-08-28T09:26:45.153Z,21.23
2022-08-28T09:33:08.151Z,21.47
2022-08-28T09:39:28.176Z,21.47
2022-08-28T09:45:51.204Z,21.74
2022-08-28T10:09:31.669Z,22.25
2022-08-28T10:15:51.192Z,22.39
2022-08-28T10:22:14.179Z,22.36
2022-08-28T10:28:34.149Z,22.71
2022-08-28T10:34:57.147Z,22.92
2022-08-28T10:41:17.175Z,23.06
2022-08-28T10:47:40.150Z,23.18
2022-08-28T10:54:00.174Z,23.43
2022-08-28T11:00:23.152Z,23.7
2022-08-28T11:06:43.145Z,23.83
2022-08-28T11:13:06.237Z,23.74
2022-08-28T11:19:26.141Z,24.04
2022-08-28T11:25:49.169Z,24.64
2022-08-28T11:32:09.149Z,25.16
2022-08-28T11:38:32.153Z,25.46
2022-08-28T11:44:52.171Z,25.62
2022-08-28T11:51:15.146Z,25.76
2022-08-28T11:57:35.210Z,25.72
2022-08-28T12:03:58.249Z,25.94
2022-08-28T12:10:18.150Z,25.92
2022-08-28T12:16:41.176Z,25.98
2022-08-28T12:23:01.147Z,26.22
2022-08-28T12:29:25.473Z,26.5
2022-08-28T12:35:44.151Z,26.84
2022-08-28T12:42:07.174Z,27
2022-08-28T12:48:27.157Z,26.88
2022-08-28T12:54:50.150Z,26.73
2022-08-28T13:01:10.249Z,26.77
2022-08-28T13:07:33.191Z,27.07
2022-08-28T13:13:53.149Z,27.65
2022-08-28T13:20:16.168Z,27.99
2022-08-28T13:26:36.153Z,27.96
2022-08-28T13:32:59.190Z,28.17
2022-08-28T13:39:19.147Z,28.19
2022-08-28T13:45:42.476Z,28.22
2022-08-28T13:52:02.193Z,28.39
2022-08-28T13:58:25.150Z,28.24
2022-08-28T14:04:45.172Z,27.94
2022-08-28T14:11:08.149Z,27.66
2022-08-28T14:17:28.265Z,27.46
2022-08-28T14:23:51.159Z,27.43
2022-08-28T14:30:11.479Z,27.19
2022-08-28T14:36:34.174Z,27.15
2022-08-28T14:42:54.146Z,26.94
2022-08-28T14:49:17.175Z,26.87
2022-08-28T14:55:37.140Z,26.75
2022-08-28T15:02:00.217Z,26.58
2022-08-28T15:08:20.178Z,26.52
2022-08-28T15:14:50.351Z,26.62
2022-08-28T15:21:03.180Z,26.35
2022-08-28T15:27:26.215Z,26.24
2022-08-28T15:33:46.144Z,26.3
2022-08-28T15:40:09.202Z,26.15
2022-08-28T15:46:29.145Z,25.94
2022-08-28T15:52:53.488Z,25.81
2022-08-28T16:09:00.075Z,25.83
2022-08-28T16:15:21.389Z,25.97
2022-08-28T16:21:43.169Z,26.08
2022-08-28T16:28:03.157Z,26.21
2022-08-28T16:34:30.853Z,26.22
2022-08-28T16:40:46.171Z,26.16
2022-08-28T16:47:09.204Z,26.08
2022-08-28T16:53:29.151Z,26.02
2022-08-28T16:59:53.109Z,25.94
2022-08-28T17:06:12.151Z,25.7
2022-08-28T17:12:35.229Z,25.4
2022-08-28T17:18:55.140Z,25.17
2022-08-28T17:25:18.150Z,24.97
2022-08-28T17:31:38.263Z,24.66
2022-08-28T17:38:01.149Z,24.39
2022-08-28T17:44:21.245Z,24.12
2022-08-28T17:50:44.149Z,23.84
2022-08-28T17:57:04.150Z,23.55
2022-08-28T18:03:27.161Z,23.33
2022-08-28T18:09:47.154Z,23.16
2022-08-28T18:16:10.202Z,22.98
2022-08-28T18:22:30.137Z,22.76
2022-08-28T18:28:53.165Z,22.53
2022-08-28T18:35:13.131Z,22.35
2022-08-28T18:41:44.381Z,22.2
2022-08-28T18:47:56.163Z,22.01
2022-08-28T18:54:19.144Z,21.75
2022-08-28T19:00:39.188Z,21.6
2022-08-28T19:07:02.163Z,21.4
2022-08-28T19:13:22.139Z,21.24
2022-08-28T19:19:45.169Z,21.04
2022-08-28T19:26:05.145Z,20.81
2022-08-28T19:32:28.167Z,20.63
2022-08-28T19:38:48.149Z,20.48
2022-08-28T19:45:11.139Z,20.39
2022-08-28T19:51:31.158Z,20.26
2022-08-28T19:57:54.144Z,20.06
2022-08-28T20:04:14.166Z,19.88
2022-08-28T20:10:37.161Z,19.78
2022-08-28T20:16:57.133Z,19.7
2022-08-28T20:23:20.358Z,19.59
2022-08-28T20:29:40.138Z,19.54
2022-08-28T20:36:03.167Z,19.48
2022-08-28T20:42:23.149Z,19.38
2022-08-28T20:48:46.156Z,19.26
2022-08-28T20:55:06.215Z,19.14
2022-08-28T21:01:29.204Z,19.07
2022-08-28T21:07:49.184Z,18.97
2022-08-28T21:14:12.143Z,18.87
2022-08-28T21:20:32.155Z,18.81
2022-08-28T21:26:55.169Z,18.75
2022-08-28T21:33:15.147Z,18.67
2022-08-28T21:39:38.165Z,18.52
2022-08-28T22:20:00.177Z,17.37
2022-08-28T22:26:20.172Z,17.34
2022-08-28T22:32:43.144Z,17.17
2022-08-28T22:39:03.136Z,17.05
2022-08-28T22:45:26.175Z,16.97
2022-08-28T22:51:46.151Z,16.91
2022-08-28T22:58:09.173Z,16.73
2022-08-28T23:04:29.239Z,16.58
2022-08-28T23:10:59.718Z,16.48
2022-08-28T23:17:12.162Z,16.45
2022-08-28T23:23:35.186Z,16.34
2022-08-28T23:29:55.161Z,16.25
2022-08-28T23:36:18.151Z,16.13
2022-08-28T23:42:38.137Z,16.05
2022-08-28T23:49:01.181Z,15.94
2022-08-28T23:55:21.165Z,15.88
